Time;durP1;ratioP1;P1;durP2;ratioP2;P2;SDS_P1;SDS_P2;PMS_P1;PMS_P2;Temp;Humidity;BMP_temperature;BMP_pressure;BME280_temperature;BME280_humidity;BME280_pressure;Samples;Min_cycle;Max_cycle;Signal;HPM_P1;HPM_P2
2021/08/23 00:01:00;;;;;;;4.18;2.50;;;;;;;;;;5027497;28;20064;-49
2021/08/23 00:03:27;;;;;;;3.85;2.50;;;;;;;;;;5031724;28;20048;-50
2021/08/23 00:05:54;;;;;;;4.80;2.88;;;;;;;;;;5016349;28;20046;-50
2021/08/23 00:08:22;;;;;;;5.07;2.63;;;;;;;;;;5011735;28;20879;-48
2021/08/23 00:10:49;;;;;;;3.33;2.30;;;;;;;;;;5029819;28;20394;-50
2021/08/23 00:13:16;;;;;;;3.42;2.50;;;;;;;;;;5028388;28;20042;-49
2021/08/23 00:15:45;;;;;;;3.28;2.35;;;;;;;;;;5019138;28;20422;-49
2021/08/23 00:18:13;;;;;;;6.03;3.10;;;;;;;;;;5011739;28;20656;-48
2021/08/23 00:20:43;;;;;;;3.78;2.65;;;;;;;;;;5012942;28;20384;-47
2021/08/23 00:23:11;;;;;;;10.88;2.42;;;;;;;;;;5016772;23;20131;-47
2021/08/23 00:25:38;;;;;;;5.70;2.40;;;;;;;;;;4993856;28;20038;-46
2021/08/23 00:28:05;;;;;;;5.72;2.35;;;;;;;;;;5004198;28;20034;-48
2021/08/23 00:30:32;;;;;;;4.97;2.58;;;;;;;;;;4995634;28;20411;-46
2021/08/23 00:32:59;;;;;;;5.72;2.45;;;;;;;;;;4994003;28;20049;-48
2021/08/23 00:35:25;;;;;;;4.60;3.13;;;;;;;;;;4994133;28;20083;-49
2021/08/23 00:37:53;;;;;;;5.18;3.60;;;;;;;;;;4995383;28;20053;-49
2021/08/23 00:40:21;;;;;;;3.67;2.47;;;;;;;;;;4979307;28;20041;-48
2021/08/23 00:42:48;;;;;;;5.97;2.85;;;;;;;;;;4987854;28;20050;-46
2021/08/23 00:45:15;;;;;;;5.55;2.78;;;;;;;;;;4994175;28;20511;-48
2021/08/23 00:47:42;;;;;;;5.25;2.72;;;;;;;;;;4989325;28;20500;-50
2021/08/23 00:50:09;;;;;;;5.78;3.00;;;;;;;;;;4980295;28;20121;-48
2021/08/23 00:52:35;;;;;;;5.38;2.95;;;;;;;;;;4995076;28;20408;-47
2021/08/23 00:55:02;;;;;;;4.97;2.90;;;;;;;;;;4993953;28;20041;-49
2021/08/23 00:57:33;;;;;;;4.25;2.75;;;;;;;;;;4985797;28;20499;-47
2021/08/23 01:00:00;;;;;;;5.15;3.10;;;;;;;;;;4994824;28;20510;-47
2021/08/23 01:02:27;;;;;;;4.82;2.78;;;;;;;;;;4994631;28;20046;-50
2021/08/23 01:05:00;;;;;;;5.90;2.75;;;;;;;;;;4981546;28;20042;-47
2021/08/23 01:07:32;;;;;;;8.85;2.55;;;;;;;;;;4994629;28;20073;-47
2021/08/23 01:10:06;;;;;;;4.90;2.35;;;;;;;;;;4981942;28;20034;-46
2021/08/23 01:12:33;;;;;;;7.75;3.42;;;;;;;;;;4989988;28;20039;-49
2021/08/23 01:14:59;;;;;;;5.05;2.97;;;;;;;;;;4993541;28;20034;-47
2021/08/23 01:17:26;;;;;;;5.43;3.00;;;;;;;;;;4994430;28;20411;-46
2021/08/23 01:19:56;;;;;;;7.03;2.90;;;;;;;;;;4988597;28;20146;-49
2021/08/23 01:22:25;;;;;;;4.20;2.40;;;;;;;;;;4994169;28;20048;-48
2021/08/23 01:24:53;;;;;;;5.63;2.45;;;;;;;;;;4992964;28;20057;-47
2021/08/23 01:27:20;;;;;;;3.95;2.40;;;;;;;;;;4993889;28;20039;-47
2021/08/23 01:30:03;;;;;;;4.25;2.45;;;;;;;;;;4977641;28;20042;-49
2021/08/23 01:32:30;;;;;;;3.95;2.40;;;;;;;;;;4992311;28;20389;-46
2021/08/23 01:34:57;;;;;;;3.63;2.63;;;;;;;;;;4993209;28;20061;-46
2021/08/23 01:37:24;;;;;;;4.93;2.55;;;;;;;;;;4982060;28;20051;-47
2021/08/23 01:39:51;;;;;;;4.75;2.45;;;;;;;;;;4975558;28;20416;-48
2021/08/23 01:42:18;;;;;;;4.80;2.50;;;;;;;;;;4993616;28;20050;-47
2021/08/23 01:44:45;;;;;;;7.35;2.60;;;;;;;;;;4992793;28;20034;-50
2021/08/23 01:47:11;;;;;;;4.75;2.65;;;;;;;;;;4993997;28;20054;-46
2021/08/23 01:49:38;;;;;;;5.68;2.30;;;;;;;;;;4976615;28;20103;-46
2021/08/23 01:52:05;;;;;;;4.93;2.50;;;;;;;;;;4993125;28;20038;-47
2021/08/23 01:54:32;;;;;;;5.25;2.80;;;;;;;;;;4993083;28;20049;-49
2021/08/23 01:56:59;;;;;;;8.15;2.75;;;;;;;;;;4985423;28;20070;-48
2021/08/23 01:59:25;;;;;;;3.65;2.30;;;;;;;;;;4990543;28;20081;-49
2021/08/23 02:01:52;;;;;;;4.40;2.60;;;;;;;;;;4993535;28;20049;-45
2021/08/23 02:04:19;;;;;;;4.78;2.85;;;;;;;;;;4992601;28;20571;-47
2021/08/23 02:06:46;;;;;;;3.70;2.20;;;;;;;;;;4988244;28;20039;-47
2021/08/23 02:09:12;;;;;;;3.58;2.47;;;;;;;;;;4977914;28;20046;-45
2021/08/23 02:11:39;;;;;;;5.40;2.63;;;;;;;;;;4973629;28;20384;-47
2021/08/23 02:14:06;;;;;;;3.92;2.42;;;;;;;;;;4990534;28;20035;-45
2021/08/23 02:16:38;;;;;;;3.88;2.45;;;;;;;;;;4993252;28;20475;-46
2021/08/23 02:19:06;;;;;;;4.55;2.10;;;;;;;;;;4993180;28;20045;-46
2021/08/23 02:21:44;;;;;;;3.03;2.10;;;;;;;;;;4992854;28;20038;-46
2021/08/23 02:24:10;;;;;;;3.30;2.03;;;;;;;;;;4973054;28;20047;-46
2021/08/23 02:26:37;;;;;;;4.25;2.30;;;;;;;;;;4986027;28;20046;-47
2021/08/23 02:29:04;;;;;;;3.53;2.28;;;;;;;;;;4992672;28;20038;-49
2021/08/23 02:31:31;;;;;;;3.38;2.17;;;;;;;;;;4983013;28;20042;-47
2021/08/23 02:33:57;;;;;;;2.88;2.40;;;;;;;;;;4982064;28;20042;-48
2021/08/23 02:36:24;;;;;;;4.60;2.58;;;;;;;;;;4992520;28;20399;-47
2021/08/23 02:38:51;;;;;;;4.32;2.30;;;;;;;;;;4985868;28;20053;-50
2021/08/23 02:41:17;;;;;;;6.50;2.20;;;;;;;;;;4973605;28;20141;-47
2021/08/23 02:43:44;;;;;;;5.38;2.40;;;;;;;;;;4978629;28;20050;-49
2021/08/23 02:46:11;;;;;;;3.42;2.20;;;;;;;;;;4990674;28;20050;-47
2021/08/23 02:48:38;;;;;;;4.72;2.45;;;;;;;;;;4980487;28;20057;-47
2021/08/23 02:51:04;;;;;;;4.65;2.42;;;;;;;;;;4992799;28;20516;-51
2021/08/23 02:53:31;;;;;;;4.65;2.28;;;;;;;;;;4992334;28;20053;-48
2021/08/23 02:55:58;;;;;;;6.45;2.45;;;;;;;;;;4991856;28;20054;-46
2021/08/23 02:58:24;;;;;;;3.80;2.30;;;;;;;;;;4975360;28;20151;-49
2021/08/23 03:00:52;;;;;;;3.70;2.10;;;;;;;;;;4990079;28;20415;-47
2021/08/23 03:03:20;;;;;;;4.82;2.28;;;;;;;;;;4992161;28;20046;-49
2021/08/23 03:05:46;;;;;;;5.97;2.15;;;;;;;;;;4988721;28;20546;-47
2021/08/23 03:08:13;;;;;;;5.28;2.85;;;;;;;;;;4990399;28;20381;-47
2021/08/23 03:10:41;;;;;;;3.45;2.28;;;;;;;;;;4991311;28;20388;-47
2021/08/23 03:13:07;;;;;;;4.43;2.13;;;;;;;;;;4993263;28;20133;-45
2021/08/23 03:15:34;;;;;;;4.55;2.03;;;;;;;;;;4992701;28;20096;-48
2021/08/23 03:18:01;;;;;;;3.17;2.10;;;;;;;;;;4986530;28;20044;-45
2021/08/23 03:20:27;;;;;;;4.30;2.50;;;;;;;;;;4991754;28;20133;-49
2021/08/23 03:22:54;;;;;;;4.95;2.38;;;;;;;;;;4992097;28;20042;-47
2021/08/23 03:25:21;;;;;;;7.07;2.65;;;;;;;;;;4985743;28;20492;-47
2021/08/23 03:27:47;;;;;;;4.00;2.50;;;;;;;;;;4991983;28;20061;-48
2021/08/23 03:30:15;;;;;;;4.78;2.42;;;;;;;;;;4990228;28;20048;-48
2021/08/23 03:32:41;;;;;;;4.10;2.15;;;;;;;;;;4991761;28;20042;-47
2021/08/23 03:35:09;;;;;;;3.50;2.22;;;;;;;;;;4986944;28;20362;-49
2021/08/23 03:37:36;;;;;;;3.85;2.10;;;;;;;;;;4991568;28;20046;-47
2021/08/23 03:40:02;;;;;;;4.15;2.53;;;;;;;;;;4985393;28;20050;-50
2021/08/23 03:42:29;;;;;;;3.70;2.40;;;;;;;;;;4991772;28;20046;-50
2021/08/23 03:44:56;;;;;;;5.03;2.30;;;;;;;;;;4990567;28;20567;-47
2021/08/23 03:47:24;;;;;;;3.80;2.63;;;;;;;;;;4977220;28;20039;-49
2021/08/23 03:49:52;;;;;;;4.13;2.33;;;;;;;;;;4988938;28;20042;-48
2021/08/23 03:52:20;;;;;;;3.65;2.17;;;;;;;;;;4991401;28;20153;-48
2021/08/23 03:54:47;;;;;;;3.33;2.10;;;;;;;;;;4990432;28;20419;-46
2021/08/23 03:57:13;;;;;;;4.05;2.58;;;;;;;;;;4974893;28;20485;-47
2021/08/23 03:59:40;;;;;;;5.07;2.60;;;;;;;;;;4985996;28;20472;-51
2021/08/23 04:02:07;;;;;;;4.10;2.60;;;;;;;;;;4991022;28;20054;-48
2021/08/23 04:04:34;;;;;;;3.50;2.10;;;;;;;;;;4985582;28;20142;-48
2021/08/23 04:07:00;;;;;;;5.30;2.10;;;;;;;;;;4988564;28;20046;-47
2021/08/23 04:09:28;;;;;;;5.03;2.22;;;;;;;;;;4990716;28;20093;-49
2021/08/23 04:11:54;;;;;;;5.43;2.25;;;;;;;;;;4991525;28;20046;-47
2021/08/23 04:14:21;;;;;;;4.03;2.30;;;;;;;;;;4990420;28;20043;-47
2021/08/23 04:16:48;;;;;;;5.13;2.53;;;;;;;;;;4988029;28;20046;-48
2021/08/23 04:19:15;;;;;;;4.72;2.30;;;;;;;;;;4991185;28;20042;-49
2021/08/23 04:21:41;;;;;;;3.53;2.30;;;;;;;;;;4991366;28;20042;-46
2021/08/23 04:24:08;;;;;;;4.25;2.00;;;;;;;;;;4990593;28;20042;-48
2021/08/23 04:26:35;;;;;;;3.60;2.20;;;;;;;;;;4980221;28;20516;-47
2021/08/23 04:29:01;;;;;;;4.68;2.50;;;;;;;;;;4982814;28;20062;-46
2021/08/23 04:31:31;;;;;;;3.30;2.15;;;;;;;;;;4990757;28;20046;-50
2021/08/23 04:34:02;;;;;;;4.75;2.38;;;;;;;;;;4983122;28;20043;-48
2021/08/23 04:36:28;;;;;;;4.28;2.30;;;;;;;;;;4980791;28;20046;-47
2021/08/23 04:38:56;;;;;;;3.67;2.25;;;;;;;;;;4983740;28;20039;-47
2021/08/23 04:41:23;;;;;;;4.88;2.30;;;;;;;;;;4979491;28;20031;-47
2021/08/23 04:43:49;;;;;;;3.55;2.47;;;;;;;;;;4991381;28;20046;-47
2021/08/23 04:46:17;;;;;;;6.22;2.40;;;;;;;;;;4989992;28;20510;-48
2021/08/23 04:48:44;;;;;;;4.65;2.42;;;;;;;;;;4973121;28;20477;-47
2021/08/23 04:51:11;;;;;;;3.90;2.17;;;;;;;;;;4983458;28;20046;-51
2021/08/23 04:53:38;;;;;;;4.13;2.05;;;;;;;;;;4991150;28;20129;-48
2021/08/23 04:56:11;;;;;;;5.03;2.10;;;;;;;;;;4988416;28;20031;-47
2021/08/23 04:58:38;;;;;;;4.53;2.60;;;;;;;;;;4991085;28;20499;-48
2021/08/23 05:01:05;;;;;;;5.25;2.90;;;;;;;;;;4990725;28;20039;-50
2021/08/23 05:03:32;;;;;;;3.72;2.50;;;;;;;;;;4990812;28;20074;-50
2021/08/23 05:05:58;;;;;;;3.38;2.13;;;;;;;;;;4979319;28;20145;-47
2021/08/23 05:08:25;;;;;;;4.97;2.55;;;;;;;;;;4974179;28;20134;-48
2021/08/23 05:10:53;;;;;;;3.45;2.05;;;;;;;;;;4994189;28;20049;-48
2021/08/23 05:13:19;;;;;;;4.90;2.60;;;;;;;;;;4994771;28;20439;-48
2021/08/23 05:15:46;;;;;;;4.75;2.60;;;;;;;;;;4993551;28;20049;-48
2021/08/23 05:18:14;;;;;;;4.15;2.47;;;;;;;;;;4991020;28;20423;-48
2021/08/23 05:20:41;;;;;;;4.80;2.17;;;;;;;;;;4994294;28;20073;-48
2021/08/23 05:23:07;;;;;;;6.57;2.42;;;;;;;;;;4994121;28;20048;-47
2021/08/23 05:25:36;;;;;;;3.83;2.42;;;;;;;;;;4993282;28;20124;-49
2021/08/23 05:28:04;;;;;;;3.67;2.30;;;;;;;;;;4977608;28;20122;-48
2021/08/23 05:30:31;;;;;;;4.75;2.28;;;;;;;;;;4978361;28;20043;-50
2021/08/23 05:32:57;;;;;;;4.90;2.97;;;;;;;;;;4993298;28;20125;-48
2021/08/23 05:35:24;;;;;;;5.25;2.78;;;;;;;;;;4979201;28;20144;-47
2021/08/23 05:37:51;;;;;;;4.25;2.50;;;;;;;;;;4993530;28;20050;-50
2021/08/23 05:40:26;;;;;;;3.25;2.10;;;;;;;;;;4975165;28;20055;-46
2021/08/23 05:42:53;;;;;;;4.28;2.03;;;;;;;;;;4992815;28;20133;-48
2021/08/23 05:45:20;;;;;;;4.35;2.08;;;;;;;;;;4993114;28;20168;-50
2021/08/23 05:47:47;;;;;;;3.67;2.28;;;;;;;;;;4990383;28;20613;-51
2021/08/23 05:50:14;;;;;;;4.53;2.25;;;;;;;;;;4992939;28;20475;-48
2021/08/23 05:52:40;;;;;;;3.35;2.20;;;;;;;;;;4993332;28;20049;-51
2021/08/23 05:55:07;;;;;;;4.63;2.35;;;;;;;;;;4996239;28;20117;-50
2021/08/23 05:57:34;;;;;;;5.88;2.47;;;;;;;;;;4977241;28;20423;-47
2021/08/23 06:00:01;;;;;;;4.57;2.55;;;;;;;;;;4990044;28;20044;-47
2021/08/23 06:02:38;;;;;;;3.83;2.40;;;;;;;;;;4993093;28;20407;-49
2021/08/23 06:05:05;;;;;;;4.05;2.25;;;;;;;;;;4989387;28;20091;-46
2021/08/23 06:07:32;;;;;;;3.58;2.20;;;;;;;;;;4993033;28;20058;-50
2021/08/23 06:09:58;;;;;;;3.65;2.30;;;;;;;;;;4989558;28;20133;-47
2021/08/23 06:12:25;;;;;;;3.95;2.55;;;;;;;;;;4993056;28;20137;-51
2021/08/23 06:14:52;;;;;;;4.22;2.47;;;;;;;;;;4992658;28;20058;-49
2021/08/23 06:17:19;;;;;;;5.25;2.42;;;;;;;;;;4990204;28;20047;-48
2021/08/23 06:19:46;;;;;;;6.18;2.70;;;;;;;;;;4979859;28;20052;-47
2021/08/23 06:22:12;;;;;;;3.50;2.20;;;;;;;;;;4992511;28;20085;-47
2021/08/23 06:24:39;;;;;;;5.68;2.15;;;;;;;;;;4991797;28;20069;-46
2021/08/23 06:27:06;;;;;;;4.90;2.47;;;;;;;;;;4991671;28;20053;-51
2021/08/23 06:29:33;;;;;;;3.78;2.00;;;;;;;;;;5010285;23;20104;-50
2021/08/23 06:32:03;;;;;;;19.60;2.70;;;;;;;;;;5002530;28;20076;-49
2021/08/23 06:34:30;;;;;;;4.75;2.33;;;;;;;;;;5012573;28;20065;-48
2021/08/23 06:36:56;;;;;;;6.07;2.30;;;;;;;;;;5018151;28;20037;-51
2021/08/23 06:39:23;;;;;;;5.00;2.33;;;;;;;;;;5003424;28;20049;-48
2021/08/23 06:41:51;;;;;;;4.95;2.45;;;;;;;;;;4993498;28;20510;-49
2021/08/23 06:44:19;;;;;;;6.47;2.78;;;;;;;;;;4993072;28;20838;-46
2021/08/23 06:46:47;;;;;;;6.65;3.38;;;;;;;;;;4993103;28;20041;-50
2021/08/23 06:49:14;;;;;;;4.60;2.67;;;;;;;;;;5007708;28;20052;-48
2021/08/23 06:51:41;;;;;;;4.88;2.20;;;;;;;;;;5011239;28;20582;-48
2021/08/23 06:54:07;;;;;;;3.92;2.35;;;;;;;;;;5004128;28;20048;-52
2021/08/23 06:56:34;;;;;;;4.88;2.47;;;;;;;;;;5013290;28;20049;-52
2021/08/23 06:59:01;;;;;;;5.03;2.30;;;;;;;;;;5010369;28;20045;-55
2021/08/23 07:01:28;;;;;;;4.85;2.47;;;;;;;;;;5003662;28;20045;-55
2021/08/23 07:03:55;;;;;;;5.43;2.00;;;;;;;;;;5012039;28;20115;-52
2021/08/23 07:06:21;;;;;;;5.13;2.47;;;;;;;;;;5011992;28;20041;-55
2021/08/23 07:08:48;;;;;;;5.82;2.03;;;;;;;;;;5003117;28;20034;-56
2021/08/23 07:11:15;;;;;;;3.88;2.25;;;;;;;;;;5011912;28;20487;-50
2021/08/23 07:13:42;;;;;;;4.45;2.38;;;;;;;;;;5012822;28;20507;-54
2021/08/23 07:16:09;;;;;;;3.78;2.22;;;;;;;;;;5008761;28;20096;-51
2021/08/23 07:18:36;;;;;;;3.67;2.30;;;;;;;;;;5007479;28;20175;-50
2021/08/23 07:21:03;;;;;;;3.58;2.40;;;;;;;;;;5012618;28;20046;-55
2021/08/23 07:23:30;;;;;;;4.75;2.17;;;;;;;;;;5015177;28;20490;-49
2021/08/23 07:25:57;;;;;;;4.70;2.10;;;;;;;;;;5015335;28;20132;-47
2021/08/23 07:28:26;;;;;;;4.82;2.28;;;;;;;;;;5009082;28;20038;-52
2021/08/23 07:30:52;;;;;;;4.00;2.30;;;;;;;;;;5016244;28;20044;-54
2021/08/23 07:33:20;;;;;;;3.97;2.28;;;;;;;;;;5012443;28;20451;-52
2021/08/23 07:35:47;;;;;;;6.38;2.40;;;;;;;;;;5008869;28;20091;-53
2021/08/23 07:38:14;;;;;;;6.20;2.40;;;;;;;;;;5011486;28;20144;-52
2021/08/23 07:40:40;;;;;;;4.20;2.10;;;;;;;;;;5009851;28;20406;-51
2021/08/23 07:43:07;;;;;;;4.80;2.33;;;;;;;;;;4992729;28;20054;-51
2021/08/23 07:45:35;;;;;;;5.22;2.50;;;;;;;;;;5004282;28;20091;-52
2021/08/23 07:48:02;;;;;;;3.25;2.30;;;;;;;;;;5013231;28;20056;-52
2021/08/23 07:50:29;;;;;;;5.53;2.67;;;;;;;;;;5014205;28;20049;-51
2021/08/23 07:52:55;;;;;;;5.95;2.42;;;;;;;;;;5012252;28;20050;-51
2021/08/23 07:55:23;;;;;;;4.88;2.10;;;;;;;;;;5016491;28;20441;-51
2021/08/23 07:57:50;;;;;;;4.55;2.33;;;;;;;;;;5004818;28;20498;-51
2021/08/23 08:00:19;;;;;;;3.88;2.45;;;;;;;;;;5024252;28;20133;-47
2021/08/23 08:02:46;;;;;;;3.95;2.50;;;;;;;;;;5022982;28;20046;-52
2021/08/23 08:05:14;;;;;;;4.75;2.53;;;;;;;;;;5008587;28;20046;-52
2021/08/23 08:07:42;;;;;;;4.57;2.35;;;;;;;;;;5002145;28;20082;-53
2021/08/23 08:10:10;;;;;;;6.68;2.75;;;;;;;;;;4992704;28;20040;-53
2021/08/23 08:12:37;;;;;;;4.43;2.55;;;;;;;;;;5017319;28;20076;-52
2021/08/23 08:15:04;;;;;;;4.25;2.85;;;;;;;;;;5020867;28;20164;-49
2021/08/23 08:17:31;;;;;;;4.13;2.60;;;;;;;;;;5008325;28;20231;-50
2021/08/23 08:19:58;;;;;;;5.57;3.15;;;;;;;;;;5018027;28;20034;-50
2021/08/23 08:22:24;;;;;;;4.45;2.80;;;;;;;;;;5027093;28;20088;-49
2021/08/23 08:24:51;;;;;;;4.72;2.78;;;;;;;;;;5014987;28;20406;-52
2021/08/23 08:27:18;;;;;;;5.93;3.20;;;;;;;;;;5027772;28;20041;-50
2021/08/23 08:29:44;;;;;;;4.32;2.80;;;;;;;;;;5010854;28;20047;-53
2021/08/23 08:32:11;;;;;;;5.47;2.88;;;;;;;;;;5024997;28;20041;-53
2021/08/23 08:34:38;;;;;;;3.70;2.50;;;;;;;;;;5000721;28;20039;-51
2021/08/23 08:37:05;;;;;;;4.05;2.80;;;;;;;;;;5021640;28;20124;-52
2021/08/23 08:39:32;;;;;;;5.57;3.20;;;;;;;;;;5007621;28;20050;-51
2021/08/23 08:41:58;;;;;;;5.95;2.80;;;;;;;;;;5005282;28;20038;-52
2021/08/23 08:44:27;;;;;;;6.53;2.95;;;;;;;;;;5024371;28;20479;-50
2021/08/23 08:46:55;;;;;;;5.88;3.22;;;;;;;;;;5017840;28;20100;-49
2021/08/23 08:49:21;;;;;;;4.63;3.25;;;;;;;;;;5018010;28;20192;-53
2021/08/23 08:51:49;;;;;;;4.63;2.65;;;;;;;;;;5013225;28;20038;-53
2021/08/23 08:54:16;;;;;;;4.15;2.65;;;;;;;;;;5020643;28;20042;-51
2021/08/23 08:56:43;;;;;;;4.97;2.50;;;;;;;;;;5010778;28;20042;-54
2021/08/23 08:59:09;;;;;;;6.55;2.97;;;;;;;;;;5007611;28;20038;-51
2021/08/23 09:01:36;;;;;;;3.40;2.20;;;;;;;;;;5026870;28;20046;-52
2021/08/23 09:04:04;;;;;;;5.35;2.53;;;;;;;;;;5026424;28;20407;-52
2021/08/23 09:06:49;;;;;;;3.40;2.28;;;;;;;;;;5013682;28;20041;-52
2021/08/23 09:09:20;;;;;;;4.00;2.25;;;;;;;;;;5007660;28;20039;-52
2021/08/23 09:12:01;;;;;;;6.00;2.30;;;;;;;;;;5013675;28;20045;-52
2021/08/23 09:14:29;;;;;;;4.88;2.20;;;;;;;;;;5025587;28;20606;-53
2021/08/23 09:17:03;;;;;;;4.20;2.22;;;;;;;;;;5016177;28;20034;-49
2021/08/23 09:19:34;;;;;;;5.60;2.30;;;;;;;;;;5009329;28;20053;-54
2021/08/23 09:22:06;;;;;;;4.75;2.03;;;;;;;;;;5016646;28;20184;-53
2021/08/23 09:24:35;;;;;;;4.65;2.10;;;;;;;;;;5012199;28;20128;-51
2021/08/23 09:27:03;;;;;;;3.72;1.98;;;;;;;;;;5018515;28;20056;-49
2021/08/23 09:29:34;;;;;;;5.05;2.30;;;;;;;;;;5021403;28;20128;-50
2021/08/23 09:32:01;;;;;;;3.35;2.20;;;;;;;;;;5017957;28;20133;-52
2021/08/23 09:34:28;;;;;;;4.43;1.90;;;;;;;;;;5017407;28;20137;-53
2021/08/23 09:36:56;;;;;;;3.45;1.83;;;;;;;;;;5014369;28;20042;-48
2021/08/23 09:39:25;;;;;;;3.33;1.90;;;;;;;;;;5013688;28;20041;-50
2021/08/23 09:42:02;;;;;;;4.05;2.22;;;;;;;;;;5018547;28;20042;-53
2021/08/23 09:44:36;;;;;;;3.05;2.03;;;;;;;;;;5017362;28;20510;-54
2021/08/23 09:47:05;;;;;;;2.63;1.70;;;;;;;;;;5017985;28;20085;-49
2021/08/23 09:49:33;;;;;;;5.88;2.30;;;;;;;;;;5011195;28;20049;-50
2021/08/23 09:52:00;;;;;;;3.42;2.20;;;;;;;;;;5019196;28;20044;-49
2021/08/23 09:54:29;;;;;;;4.07;2.33;;;;;;;;;;5019422;28;20042;-54
2021/08/23 09:56:56;;;;;;;4.28;2.45;;;;;;;;;;5023687;28;20046;-52
2021/08/23 09:59:25;;;;;;;4.10;2.47;;;;;;;;;;5020689;28;20048;-53
2021/08/23 10:01:54;;;;;;;3.10;1.73;;;;;;;;;;5019365;28;20128;-52
2021/08/23 10:04:21;;;;;;;3.47;1.67;;;;;;;;;;5016615;28;20045;-49
2021/08/23 10:06:49;;;;;;;4.18;1.90;;;;;;;;;;5016040;28;20128;-50
2021/08/23 10:09:17;;;;;;;3.38;1.75;;;;;;;;;;5001733;28;20125;-53
2021/08/23 10:11:49;;;;;;;3.33;1.88;;;;;;;;;;5023753;28;20042;-51
2021/08/23 10:14:16;;;;;;;3.47;1.88;;;;;;;;;;5028322;28;20060;-49
2021/08/23 10:16:43;;;;;;;3.53;1.95;;;;;;;;;;5020454;28;20053;-49
2021/08/23 10:19:10;;;;;;;2.97;1.83;;;;;;;;;;5018692;28;20052;-51
2021/08/23 10:21:40;;;;;;;3.08;1.77;;;;;;;;;;5017378;28;20104;-52
2021/08/23 10:24:07;;;;;;;3.88;2.42;;;;;;;;;;5016642;28;20072;-51
2021/08/23 10:26:37;;;;;;;3.17;1.60;;;;;;;;;;5013978;28;20129;-47
2021/08/23 10:29:08;;;;;;;3.45;1.75;;;;;;;;;;5017068;28;20056;-48
2021/08/23 10:31:36;;;;;;;3.33;1.65;;;;;;;;;;5028835;28;20045;-51
2021/08/23 10:34:11;;;;;;;3.03;1.55;;;;;;;;;;5015442;28;20032;-54
2021/08/23 10:36:38;;;;;;;3.17;2.08;;;;;;;;;;5016118;28;20042;-50
2021/08/23 10:39:05;;;;;;;3.45;2.00;;;;;;;;;;5007140;28;20137;-48
2021/08/23 10:41:32;;;;;;;3.00;1.75;;;;;;;;;;5015412;28;20042;-49
2021/08/23 10:44:01;;;;;;;3.78;1.80;;;;;;;;;;5017246;28;20037;-46
2021/08/23 10:46:29;;;;;;;2.92;1.92;;;;;;;;;;5013702;28;20129;-52
2021/08/23 10:48:57;;;;;;;3.22;1.65;;;;;;;;;;5009009;28;20398;-50
2021/08/23 10:51:33;;;;;;;4.15;2.00;;;;;;;;;;5028302;28;20513;-48
2021/08/23 10:54:01;;;;;;;5.70;2.75;;;;;;;;;;5016933;28;20041;-49
2021/08/23 10:56:35;;;;;;;5.75;2.60;;;;;;;;;;5001572;28;20045;-49
2021/08/23 10:59:12;;;;;;;3.88;2.17;;;;;;;;;;5028417;28;20052;-48
2021/08/23 11:01:51;;;;;;;3.63;1.95;;;;;;;;;;5017480;28;20045;-49
2021/08/23 11:04:27;;;;;;;5.50;2.13;;;;;;;;;;5001135;28;20950;-48
2021/08/23 11:06:54;;;;;;;4.30;2.00;;;;;;;;;;5008393;28;20048;-49
2021/08/23 11:09:29;;;;;;;5.18;2.25;;;;;;;;;;5018274;28;20043;-50
2021/08/23 11:12:04;;;;;;;4.90;1.77;;;;;;;;;;5025209;28;20487;-50
2021/08/23 11:14:40;;;;;;;3.72;1.88;;;;;;;;;;5024092;28;20049;-49
2021/08/23 11:17:07;;;;;;;3.85;1.80;;;;;;;;;;5013953;28;20095;-49
2021/08/23 11:19:37;;;;;;;2.35;1.50;;;;;;;;;;5013810;28;20052;-49
2021/08/23 11:22:04;;;;;;;4.95;1.73;;;;;;;;;;5028542;28;20151;-49
2021/08/23 11:24:32;;;;;;;4.05;1.98;;;;;;;;;;5018447;28;20076;-50
2021/08/23 11:27:02;;;;;;;3.88;2.10;;;;;;;;;;5024230;28;20037;-49
2021/08/23 11:29:29;;;;;;;4.20;2.08;;;;;;;;;;5018821;28;20088;-53
2021/08/23 11:31:57;;;;;;;4.43;1.92;;;;;;;;;;5018056;28;20038;-53
2021/08/23 11:34:27;;;;;;;4.18;1.73;;;;;;;;;;5019107;28;20030;-50
2021/08/23 11:37:02;;;;;;;3.60;1.73;;;;;;;;;;5011687;28;20104;-50
2021/08/23 11:39:29;;;;;;;3.28;1.60;;;;;;;;;;5009333;28;20414;-50
2021/08/23 11:41:58;;;;;;;2.42;1.60;;;;;;;;;;5013244;28;20046;-49
2021/08/23 11:44:25;;;;;;;3.80;1.98;;;;;;;;;;5006396;28;20144;-48
2021/08/23 11:46:56;;;;;;;3.95;1.95;;;;;;;;;;5007043;28;20096;-51
2021/08/23 11:49:38;;;;;;;4.60;2.28;;;;;;;;;;5009965;28;20446;-48
2021/08/23 11:52:15;;;;;;;4.55;2.17;;;;;;;;;;5008024;28;20411;-48
2021/08/23 11:54:46;;;;;;;4.78;2.00;;;;;;;;;;5002873;28;20054;-53
2021/08/23 11:57:13;;;;;;;2.50;1.70;;;;;;;;;;5010367;28;20406;-50
2021/08/23 11:59:39;;;;;;;3.45;1.65;;;;;;;;;;5009932;28;20041;-48
2021/08/23 12:02:10;;;;;;;3.40;2.20;;;;;;;;;;5009064;28;20038;-47
2021/08/23 12:04:37;;;;;;;3.20;1.92;;;;;;;;;;5010519;28;20062;-47
2021/08/23 12:07:04;;;;;;;4.10;1.80;;;;;;;;;;5010915;28;20046;-53
2021/08/23 12:09:31;;;;;;;3.08;1.60;;;;;;;;;;5007415;28;20034;-50
2021/08/23 12:11:57;;;;;;;3.22;1.73;;;;;;;;;;5010549;28;20125;-51
2021/08/23 12:14:24;;;;;;;5.35;2.00;;;;;;;;;;5008365;28;20038;-55
2021/08/23 12:16:56;;;;;;;4.35;2.00;;;;;;;;;;5015309;28;20042;-50
2021/08/23 12:19:23;;;;;;;3.63;1.98;;;;;;;;;;5008232;28;20461;-50
2021/08/23 12:21:50;;;;;;;3.63;1.85;;;;;;;;;;5014463;28;20076;-49
2021/08/23 12:24:18;;;;;;;3.15;1.73;;;;;;;;;;5014771;28;20048;-50
2021/08/23 12:26:54;;;;;;;4.88;1.70;;;;;;;;;;5012560;28;20045;-55
2021/08/23 12:29:41;;;;;;;3.95;1.92;;;;;;;;;;5015254;28;20056;-52
2021/08/23 12:32:09;;;;;;;2.47;1.60;;;;;;;;;;5021909;28;20058;-51
2021/08/23 12:34:39;;;;;;;3.80;1.60;;;;;;;;;;5005865;28;20047;-52
2021/08/23 12:37:06;;;;;;;3.55;1.90;;;;;;;;;;5033265;28;20048;-55
2021/08/23 12:39:33;;;;;;;3.40;2.10;;;;;;;;;;5010173;28;20042;-51
2021/08/23 12:42:01;;;;;;;4.13;1.75;;;;;;;;;;4995820;28;20054;-50
2021/08/23 12:44:28;;;;;;;3.63;1.90;;;;;;;;;;4995337;28;20050;-52
2021/08/23 12:46:55;;;;;;;3.53;2.05;;;;;;;;;;4998755;28;20069;-51
2021/08/23 12:49:22;;;;;;;3.08;1.95;;;;;;;;;;5013840;28;20052;-51
2021/08/23 12:51:50;;;;;;;4.40;1.88;;;;;;;;;;5015290;28;20052;-54
2021/08/23 12:54:17;;;;;;;4.03;1.90;;;;;;;;;;5013555;28;20049;-51
2021/08/23 12:56:45;;;;;;;5.30;2.13;;;;;;;;;;4999727;28;20048;-52
2021/08/23 12:59:11;;;;;;;3.55;2.13;;;;;;;;;;4995477;28;20052;-52
2021/08/23 13:01:38;;;;;;;3.95;1.95;;;;;;;;;;4994289;28;20137;-54
2021/08/23 13:04:05;;;;;;;4.20;2.10;;;;;;;;;;4994592;28;20062;-55
2021/08/23 13:06:32;;;;;;;4.93;2.10;;;;;;;;;;5010512;28;20052;-53
2021/08/23 13:08:59;;;;;;;2.90;1.60;;;;;;;;;;5006781;28;20057;-51
2021/08/23 13:11:26;;;;;;;3.97;1.40;;;;;;;;;;4995376;28;20047;-51
2021/08/23 13:13:53;;;;;;;2.63;1.45;;;;;;;;;;5004086;28;20034;-50
2021/08/23 13:16:20;;;;;;;2.40;1.55;;;;;;;;;;5011823;28;20045;-50
2021/08/23 13:18:47;;;;;;;2.83;1.77;;;;;;;;;;5012110;28;20140;-52
2021/08/23 13:21:14;;;;;;;3.47;2.00;;;;;;;;;;5012682;28;20473;-47
2021/08/23 13:23:41;;;;;;;5.70;1.75;;;;;;;;;;5012636;28;20495;-52
2021/08/23 13:26:08;;;;;;;2.88;1.63;;;;;;;;;;5011152;28;20045;-50
2021/08/23 13:28:34;;;;;;;4.75;1.40;;;;;;;;;;5014113;28;20104;-50
2021/08/23 13:31:02;;;;;;;3.25;2.03;;;;;;;;;;5009966;28;20034;-51
2021/08/23 13:33:29;;;;;;;3.00;1.60;;;;;;;;;;5010937;28;20563;-53
2021/08/23 13:35:56;;;;;;;3.42;2.08;;;;;;;;;;5011066;28;20108;-47
2021/08/23 13:38:24;;;;;;;3.58;1.70;;;;;;;;;;5012665;28;20121;-50
2021/08/23 13:40:53;;;;;;;5.97;1.75;;;;;;;;;;5015273;28;20049;-54
2021/08/23 13:43:20;;;;;;;4.75;1.70;;;;;;;;;;5014104;28;20068;-49
2021/08/23 13:45:48;;;;;;;3.85;2.10;;;;;;;;;;5010964;28;20487;-53
2021/08/23 13:48:15;;;;;;;6.55;2.00;;;;;;;;;;5013274;28;20423;-48
2021/08/23 13:50:44;;;;;;;5.95;2.55;;;;;;;;;;5008066;28;20046;-48
2021/08/23 13:53:11;;;;;;;5.45;1.80;;;;;;;;;;5013622;28;20038;-49
2021/08/23 13:55:38;;;;;;;10.02;2.50;;;;;;;;;;5015903;28;20149;-51
2021/08/23 13:58:05;;;;;;;4.70;1.75;;;;;;;;;;5019468;28;20042;-49
2021/08/23 14:00:51;;;;;;;8.85;1.98;;;;;;;;;;5024662;28;20092;-47
2021/08/23 14:03:19;;;;;;;4.82;2.33;;;;;;;;;;5012025;28;20033;-52
2021/08/23 14:05:46;;;;;;;5.05;1.80;;;;;;;;;;5010766;28;20516;-50
2021/08/23 14:08:12;;;;;;;3.85;2.10;;;;;;;;;;5013755;28;20503;-48
2021/08/23 14:10:39;;;;;;;3.03;1.65;;;;;;;;;;5013198;28;20037;-48
2021/08/23 14:13:06;;;;;;;2.83;1.80;;;;;;;;;;5014883;28;20108;-47
2021/08/23 14:15:33;;;;;;;3.20;1.73;;;;;;;;;;5013703;28;20133;-51
2021/08/23 14:18:00;;;;;;;4.20;1.60;;;;;;;;;;5019964;28;20043;-47
2021/08/23 14:20:26;;;;;;;3.50;1.58;;;;;;;;;;5012410;28;20052;-47
2021/08/23 14:22:53;;;;;;;5.47;1.70;;;;;;;;;;5024955;28;20050;-48
2021/08/23 14:25:21;;;;;;;2.78;1.30;;;;;;;;;;5017017;28;20095;-47
2021/08/23 14:27:48;;;;;;;2.70;1.42;;;;;;;;;;5014487;28;20046;-49
2021/08/23 14:30:14;;;;;;;2.70;1.40;;;;;;;;;;5011039;28;20088;-53
2021/08/23 14:32:43;;;;;;;3.00;1.52;;;;;;;;;;5014019;28;20045;-49
2021/08/23 14:35:10;;;;;;;3.42;1.48;;;;;;;;;;5015530;28;20053;-51
2021/08/23 14:37:37;;;;;;;3.47;1.83;;;;;;;;;;5014855;28;20133;-54
2021/08/23 14:40:04;;;;;;;3.15;1.50;;;;;;;;;;5018366;28;20053;-53
2021/08/23 14:42:32;;;;;;;2.88;1.85;;;;;;;;;;5010939;28;20042;-52
2021/08/23 14:44:59;;;;;;;3.88;2.20;;;;;;;;;;4995229;28;20110;-54
2021/08/23 14:47:26;;;;;;;2.88;1.70;;;;;;;;;;5006777;28;20046;-50